sensor_id;sensor_type;location;lat;lon;timestamp;temperature;humidity
68109;SHT30;54893;49.864;19.084;2022-08-23T00:04:29;16.22;99.99
68109;SHT30;54893;49.864;19.084;2022-08-23T00:09:30;16.22;99.99
68109;SHT30;54893;49.864;19.084;2022-08-23T00:14:33;16.25;99.99
68109;SHT30;54893;49.864;19.084;2022-08-23T00:19:35;16.26;99.99
68109;SHT30;54893;49.864;19.084;2022-08-23T00:24:36;16.25;99.99
68109;SHT30;54893;49.864;19.084;2022-08-23T00:29:46;16.28;99.99
68109;SHT30;54893;49.864;19.084;2022-08-23T00:34:48;16.25;99.99
68109;SHT30;54893;49.864;19.084;2022-08-23T00:39:48;16.26;99.99
68109;SHT30;54893;49.864;19.084;2022-08-23T00:44:49;16.26;99.99
68109;SHT30;54893;49.864;19.084;2022-08-23T00:50:24;16.25;99.99
68109;SHT30;54893;49.864;19.084;2022-08-23T00:55:27;16.29;99.99
68109;SHT30;54893;49.864;19.084;2022-08-23T01:00:28;16.24;99.99
68109;SHT30;54893;49.864;19.084;2022-08-23T01:05:35;16.25;99.99
68109;SHT30;54893;49.864;19.084;2022-08-23T01:10:44;16.25;99.99
68109;SHT30;54893;49.864;19.084;2022-08-23T01:15:56;16.25;99.99
68109;SHT30;54893;49.864;19.084;2022-08-23T01:21:22;16.28;99.99
68109;SHT30;54893;49.864;19.084;2022-08-23T01:26:24;16.28;99.99
68109;SHT30;54893;49.864;19.084;2022-08-23T01:31:25;16.29;99.99
68109;SHT30;54893;49.864;19.084;2022-08-23T01:36:27;16.29;99.99
68109;SHT30;54893;49.864;19.084;2022-08-23T01:41:28;16.24;99.99
68109;SHT30;54893;49.864;19.084;2022-08-23T01:46:28;16.25;99.99
68109;SHT30;54893;49.864;19.084;2022-08-23T01:51:28;16.31;99.99
68109;SHT30;54893;49.864;19.084;2022-08-23T01:56:30;16.29;99.99
68109;SHT30;54893;49.864;19.084;2022-08-23T02:01:32;16.28;99.99
68109;SHT30;54893;49.864;19.084;2022-08-23T02:06:32;16.26;99.99
68109;SHT30;54893;49.864;19.084;2022-08-23T02:11:35;16.28;99.99
68109;SHT30;54893;49.864;19.084;2022-08-23T02:16:40;16.26;99.99
68109;SHT30;54893;49.864;19.084;2022-08-23T02:21:42;16.24;99.99
68109;SHT30;54893;49.864;19.084;2022-08-23T02:26:46;16.19;99.99
68109;SHT30;54893;49.864;19.084;2022-08-23T02:31:47;16.18;99.99
68109;SHT30;54893;49.864;19.084;2022-08-23T02:36:48;16.19;99.99
68109;SHT30;54893;49.864;19.084;2022-08-23T02:41:48;16.21;99.99
68109;SHT30;54893;49.864;19.084;2022-08-23T02:46:49;16.22;99.99
68109;SHT30;54893;49.864;19.084;2022-08-23T02:51:49;16.26;99.99
68109;SHT30;54893;49.864;19.084;2022-08-23T02:56:50;16.25;99.99
68109;SHT30;54893;49.864;19.084;2022-08-23T03:01:51;16.28;99.99
68109;SHT30;54893;49.864;19.084;2022-08-23T03:06:52;16.31;99.99
68109;SHT30;54893;49.864;19.084;2022-08-23T03:11:52;16.29;99.99
68109;SHT30;54893;49.864;19.084;2022-08-23T03:16:53;16.33;99.99
68109;SHT30;54893;49.864;19.084;2022-08-23T03:21:54;16.35;99.99
68109;SHT30;54893;49.864;19.084;2022-08-23T03:26:54;16.35;99.99
68109;SHT30;54893;49.864;19.084;2022-08-23T03:31:54;16.38;99.99
68109;SHT30;54893;49.864;19.084;2022-08-23T03:36:55;16.38;99.99
68109;SHT30;54893;49.864;19.084;2022-08-23T03:41:56;16.38;99.99
68109;SHT30;54893;49.864;19.084;2022-08-23T03:46:56;16.35;99.99
68109;SHT30;54893;49.864;19.084;2022-08-23T03:51:57;16.35;99.99
68109;SHT30;54893;49.864;19.084;2022-08-23T03:57:02;16.35;99.99
68109;SHT30;54893;49.864;19.084;2022-08-23T04:02:03;16.41;99.99
68109;SHT30;54893;49.864;19.084;2022-08-23T04:07:04;16.42;99.99
68109;SHT30;54893;49.864;19.084;2022-08-23T04:12:04;16.44;99.99
68109;SHT30;54893;49.864;19.084;2022-08-23T04:17:05;16.48;99.99
68109;SHT30;54893;49.864;19.084;2022-08-23T04:22:10;16.56;99.99
68109;SHT30;54893;49.864;19.084;2022-08-23T04:27:12;16.62;99.99
68109;SHT30;54893;49.864;19.084;2022-08-23T04:32:13;16.66;99.99
68109;SHT30;54893;49.864;19.084;2022-08-23T04:37:14;16.77;99.97
68109;SHT30;54893;49.864;19.084;2022-08-23T04:42:15;16.82;99.85
68109;SHT30;54893;49.864;19.084;2022-08-23T04:47:18;16.89;99.77
68109;SHT30;54893;49.864;19.084;2022-08-23T04:52:19;17.03;99.52
68109;SHT30;54893;49.864;19.084;2022-08-23T04:57:19;17.10;99.24
68109;SHT30;54893;49.864;19.084;2022-08-23T05:02:20;17.31;98.99
68109;SHT30;54893;49.864;19.084;2022-08-23T05:07:21;17.47;98.61
68109;SHT30;54893;49.864;19.084;2022-08-23T05:12:22;17.60;98.50
68109;SHT30;54893;49.864;19.084;2022-08-23T05:17:22;17.64;98.34
68109;SHT30;54893;49.864;19.084;2022-08-23T05:22:22;17.55;98.24
68109;SHT30;54893;49.864;19.084;2022-08-23T05:27:23;17.64;98.31
68109;SHT30;54893;49.864;19.084;2022-08-23T05:32:24;17.66;97.95
68109;SHT30;54893;49.864;19.084;2022-08-23T05:37:24;17.51;97.97
68109;SHT30;54893;49.864;19.084;2022-08-23T05:42:24;17.74;98.08
68109;SHT30;54893;49.864;19.084;2022-08-23T05:47:25;17.84;98.04
68109;SHT30;54893;49.864;19.084;2022-08-23T05:52:27;17.78;97.88
68109;SHT30;54893;49.864;19.084;2022-08-23T05:57:27;17.74;97.49
68109;SHT30;54893;49.864;19.084;2022-08-23T06:02:27;17.75;97.27
68109;SHT30;54893;49.864;19.084;2022-08-23T06:07:28;17.81;97.17
68109;SHT30;54893;49.864;19.084;2022-08-23T06:12:30;17.80;96.89
68109;SHT30;54893;49.864;19.084;2022-08-23T06:17:31;17.83;97.02
68109;SHT30;54893;49.864;19.084;2022-08-23T06:22:31;17.81;96.54
68109;SHT30;54893;49.864;19.084;2022-08-23T06:27:32;17.75;96.89
68109;SHT30;54893;49.864;19.084;2022-08-23T06:32:32;17.91;96.47
68109;SHT30;54893;49.864;19.084;2022-08-23T06:37:34;18.00;96.60
68109;SHT30;54893;49.864;19.084;2022-08-23T06:42:34;18.15;96.38
68109;SHT30;54893;49.864;19.084;2022-08-23T06:47:35;18.19;96.16
68109;SHT30;54893;49.864;19.084;2022-08-23T06:52:36;18.48;95.63
68109;SHT30;54893;49.864;19.084;2022-08-23T06:57:36;18.59;95.73
68109;SHT30;54893;49.864;19.084;2022-08-23T07:02:36;18.61;95.38
68109;SHT30;54893;49.864;19.084;2022-08-23T07:07:37;18.69;95.11
68109;SHT30;54893;49.864;19.084;2022-08-23T07:12:39;18.71;94.77
68109;SHT30;54893;49.864;19.084;2022-08-23T07:17:41;18.77;94.43
68109;SHT30;54893;49.864;19.084;2022-08-23T07:22:41;19.00;94.25
68109;SHT30;54893;49.864;19.084;2022-08-23T07:27:43;18.96;93.40
68109;SHT30;54893;49.864;19.084;2022-08-23T07:32:44;19.43;93.00
68109;SHT30;54893;49.864;19.084;2022-08-23T07:37:44;19.80;92.23
68109;SHT30;54893;49.864;19.084;2022-08-23T07:42:44;20.20;91.60
68109;SHT30;54893;49.864;19.084;2022-08-23T07:47:45;20.31;91.38
68109;SHT30;54893;49.864;19.084;2022-08-23T07:52:45;20.05;91.66
68109;SHT30;54893;49.864;19.084;2022-08-23T07:57:46;19.84;92.17
68109;SHT30;54893;49.864;19.084;2022-08-23T08:02:47;20.31;90.57
68109;SHT30;54893;49.864;19.084;2022-08-23T08:07:47;20.98;89.01
68109;SHT30;54893;49.864;19.084;2022-08-23T08:12:47;20.86;89.05
68109;SHT30;54893;49.864;19.084;2022-08-23T08:17:49;21.02;88.37
68109;SHT30;54893;49.864;19.084;2022-08-23T08:22:50;21.14;88.15
68109;SHT30;54893;49.864;19.084;2022-08-23T08:27:50;21.07;88.03
68109;SHT30;54893;49.864;19.084;2022-08-23T08:32:51;21.04;86.75
68109;SHT30;54893;49.864;19.084;2022-08-23T08:37:51;21.12;86.67
68109;SHT30;54893;49.864;19.084;2022-08-23T08:43:04;21.26;86.88
68109;SHT30;54893;49.864;19.084;2022-08-23T08:48:09;21.26;86.89
68109;SHT30;54893;49.864;19.084;2022-08-23T08:53:35;21.34;86.63
68109;SHT30;54893;49.864;19.084;2022-08-23T08:58:46;21.54;86.27
68109;SHT30;54893;49.864;19.084;2022-08-23T09:03:47;21.90;85.93
68109;SHT30;54893;49.864;19.084;2022-08-23T09:19:32;21.19;85.29
68109;SHT30;54893;49.864;19.084;2022-08-23T09:24:33;21.71;84.18
68109;SHT30;54893;49.864;19.084;2022-08-23T09:29:36;22.14;82.96
68109;SHT30;54893;49.864;19.084;2022-08-23T09:34:40;21.68;85.19
68109;SHT30;54893;49.864;19.084;2022-08-23T09:39:45;21.78;84.16
68109;SHT30;54893;49.864;19.084;2022-08-23T09:44:46;22.25;82.73
68109;SHT30;54893;49.864;19.084;2022-08-23T09:49:47;22.02;84.02
68109;SHT30;54893;49.864;19.084;2022-08-23T09:54:58;22.48;83.48
68109;SHT30;54893;49.864;19.084;2022-08-23T10:05:39;22.42;82.67
68109;SHT30;54893;49.864;19.084;2022-08-23T10:10:44;21.94;83.48
68109;SHT30;54893;49.864;19.084;2022-08-23T10:26:32;21.71;83.90
68109;SHT30;54893;49.864;19.084;2022-08-23T10:42:07;21.50;84.62
68109;SHT30;54893;49.864;19.084;2022-08-23T10:52:33;21.58;84.70
68109;SHT30;54893;49.864;19.084;2022-08-23T10:57:39;21.87;84.25
68109;SHT30;54893;49.864;19.084;2022-08-23T11:02:48;21.50;84.82
68109;SHT30;54893;49.864;19.084;2022-08-23T11:08:03;21.37;85.57
68109;SHT30;54893;49.864;19.084;2022-08-23T11:18:35;21.66;84.66
68109;SHT30;54893;49.864;19.084;2022-08-23T11:34:34;21.67;83.90
68109;SHT30;54893;49.864;19.084;2022-08-23T11:40:07;21.86;84.10
68109;SHT30;54893;49.864;19.084;2022-08-23T11:50:38;22.56;82.10
68109;SHT30;54893;49.864;19.084;2022-08-23T11:56:31;22.66;81.15
68109;SHT30;54893;49.864;19.084;2022-08-23T12:01:34;23.02;80.75
68109;SHT30;54893;49.864;19.084;2022-08-23T12:06:48;23.15;80.38
68109;SHT30;54893;49.864;19.084;2022-08-23T12:17:01;23.32;79.41
68109;SHT30;54893;49.864;19.084;2022-08-23T12:22:10;23.30;78.35
68109;SHT30;54893;49.864;19.084;2022-08-23T12:43:09;23.50;79.63
68109;SHT30;54893;49.864;19.084;2022-08-23T12:48:16;24.20;77.56
68109;SHT30;54893;49.864;19.084;2022-08-23T12:53:30;24.07;77.90
68109;SHT30;54893;49.864;19.084;2022-08-23T12:58:33;23.47;78.63
68109;SHT30;54893;49.864;19.084;2022-08-23T13:03:38;23.30;77.68
68109;SHT30;54893;49.864;19.084;2022-08-23T13:08:43;24.00;77.71
68109;SHT30;54893;49.864;19.084;2022-08-23T13:13:46;24.62;75.40
68109;SHT30;54893;49.864;19.084;2022-08-23T13:18:47;24.06;76.57
68109;SHT30;54893;49.864;19.084;2022-08-23T13:24:00;23.86;76.95
68109;SHT30;54893;49.864;19.084;2022-08-23T13:34:01;23.39;79.88
68109;SHT30;54893;49.864;19.084;2022-08-23T13:39:05;23.24;79.96
68109;SHT30;54893;49.864;19.084;2022-08-23T13:44:07;23.16;80.15
68109;SHT30;54893;49.864;19.084;2022-08-23T13:54:20;23.33;78.72
68109;SHT30;54893;49.864;19.084;2022-08-23T13:59:28;23.69;77.74
68109;SHT30;54893;49.864;19.084;2022-08-23T14:04:29;23.90;77.60
68109;SHT30;54893;49.864;19.084;2022-08-23T14:09:29;24.38;76.40
68109;SHT30;54893;49.864;19.084;2022-08-23T14:14:32;24.57;76.09
68109;SHT30;54893;49.864;19.084;2022-08-23T14:19:32;24.51;75.41
68109;SHT30;54893;49.864;19.084;2022-08-23T14:24:33;24.47;75.57
68109;SHT30;54893;49.864;19.084;2022-08-23T14:29:33;25.49;73.57
68109;SHT30;54893;49.864;19.084;2022-08-23T14:34:34;27.46;68.68
68109;SHT30;54893;49.864;19.084;2022-08-23T14:39:34;28.72;64.47
68109;SHT30;54893;49.864;19.084;2022-08-23T14:44:35;28.92;63.41
68109;SHT30;54893;49.864;19.084;2022-08-23T14:49:35;27.97;66.62
68109;SHT30;54893;49.864;19.084;2022-08-23T14:54:36;28.46;63.62
68109;SHT30;54893;49.864;19.084;2022-08-23T14:59:36;29.36;62.85
68109;SHT30;54893;49.864;19.084;2022-08-23T15:04:37;29.82;61.12
68109;SHT30;54893;49.864;19.084;2022-08-23T15:09:38;29.48;60.96
68109;SHT30;54893;49.864;19.084;2022-08-23T15:14:38;29.15;61.46
68109;SHT30;54893;49.864;19.084;2022-08-23T15:19:39;28.51;63.41
68109;SHT30;54893;49.864;19.084;2022-08-23T15:24:39;29.11;62.25
68109;SHT30;54893;49.864;19.084;2022-08-23T15:29:40;27.70;62.23
68109;SHT30;54893;49.864;19.084;2022-08-23T15:34:40;28.41;64.63
68109;SHT30;54893;49.864;19.084;2022-08-23T15:39:41;29.14;62.90
68109;SHT30;54893;49.864;19.084;2022-08-23T15:44:41;30.06;60.41
68109;SHT30;54893;49.864;19.084;2022-08-23T15:49:41;29.87;58.61
68109;SHT30;54893;49.864;19.084;2022-08-23T15:54:42;29.92;59.32
68109;SHT30;54893;49.864;19.084;2022-08-23T15:59:43;29.95;59.04
68109;SHT30;54893;49.864;19.084;2022-08-23T16:04:44;29.70;59.57
68109;SHT30;54893;49.864;19.084;2022-08-23T16:09:44;29.95;58.78
68109;SHT30;54893;49.864;19.084;2022-08-23T16:14:44;29.54;60.57
68109;SHT30;54893;49.864;19.084;2022-08-23T16:19:45;28.86;59.98
68109;SHT30;54893;49.864;19.084;2022-08-23T16:24:46;26.37;66.09
68109;SHT30;54893;49.864;19.084;2022-08-23T16:29:47;25.47;68.89
68109;SHT30;54893;49.864;19.084;2022-08-23T16:34:47;25.04;70.49
68109;SHT30;54893;49.864;19.084;2022-08-23T16:39:47;24.40;71.99
68109;SHT30;54893;49.864;19.084;2022-08-23T16:44:48;23.69;74.11
68109;SHT30;54893;49.864;19.084;2022-08-23T16:49:48;23.23;75.46
68109;SHT30;54893;49.864;19.084;2022-08-23T16:54:49;23.26;75.68
68109;SHT30;54893;49.864;19.084;2022-08-23T16:59:49;22.98;76.80
68109;SHT30;54893;49.864;19.084;2022-08-23T17:04:50;22.56;78.09
68109;SHT30;54893;49.864;19.084;2022-08-23T17:09:50;22.14;80.19
68109;SHT30;54893;49.864;19.084;2022-08-23T17:14:51;22.07;81.38
68109;SHT30;54893;49.864;19.084;2022-08-23T17:19:52;21.77;83.07
68109;SHT30;54893;49.864;19.084;2022-08-23T17:24:52;21.58;84.10
68109;SHT30;54893;49.864;19.084;2022-08-23T17:29:52;21.24;85.16
68109;SHT30;54893;49.864;19.084;2022-08-23T17:34:53;20.98;86.45
68109;SHT30;54893;49.864;19.084;2022-08-23T17:39:53;20.68;87.14
68109;SHT30;54893;49.864;19.084;2022-08-23T17:44:54;20.59;88.09
68109;SHT30;54893;49.864;19.084;2022-08-23T17:49:54;20.36;88.88
68109;SHT30;54893;49.864;19.084;2022-08-23T17:54:55;20.21;89.84
68109;SHT30;54893;49.864;19.084;2022-08-23T17:59:55;20.04;90.46
68109;SHT30;54893;49.864;19.084;2022-08-23T18:04:56;19.78;91.13
68109;SHT30;54893;49.864;19.084;2022-08-23T18:09:56;19.70;91.60
68109;SHT30;54893;49.864;19.084;2022-08-23T18:14:57;19.50;91.88
68109;SHT30;54893;49.864;19.084;2022-08-23T18:19:58;19.41;92.15
68109;SHT30;54893;49.864;19.084;2022-08-23T18:24:58;19.37;92.24
68109;SHT30;54893;49.864;19.084;2022-08-23T18:35:55;19.15;92.65
68109;SHT30;54893;49.864;19.084;2022-08-23T18:40:56;19.06;93.10
68109;SHT30;54893;49.864;19.084;2022-08-23T18:45:56;19.03;93.41
68109;SHT30;54893;49.864;19.084;2022-08-23T18:50:57;19.00;93.78
68109;SHT30;54893;49.864;19.084;2022-08-23T18:55:58;19.03;93.89
68109;SHT30;54893;49.864;19.084;2022-08-23T19:00:58;19.13;94.02
68109;SHT30;54893;49.864;19.084;2022-08-23T19:05:58;19.16;94.28
68109;SHT30;54893;49.864;19.084;2022-08-23T19:10:59;19.12;94.13
68109;SHT30;54893;49.864;19.084;2022-08-23T19:15:59;19.00;94.43
68109;SHT30;54893;49.864;19.084;2022-08-23T19:21:02;19.16;94.42
68109;SHT30;54893;49.864;19.084;2022-08-23T19:26:02;19.15;94.54
68109;SHT30;54893;49.864;19.084;2022-08-23T19:31:03;19.09;94.62
68109;SHT30;54893;49.864;19.084;2022-08-23T19:36:04;19.19;94.58
68109;SHT30;54893;49.864;19.084;2022-08-23T19:41:05;19.09;94.72
68109;SHT30;54893;49.864;19.084;2022-08-23T19:46:07;19.05;94.84
68109;SHT30;54893;49.864;19.084;2022-08-23T19:51:16;19.09;95.00
68109;SHT30;54893;49.864;19.084;2022-08-23T19:56:17;19.02;95.32
68109;SHT30;54893;49.864;19.084;2022-08-23T20:01:17;18.93;95.57
68109;SHT30;54893;49.864;19.084;2022-08-23T20:06:19;18.93;95.68
68109;SHT30;54893;49.864;19.084;2022-08-23T20:11:20;18.86;95.53
68109;SHT30;54893;49.864;19.084;2022-08-23T20:16:20;19.06;94.69
68109;SHT30;54893;49.864;19.084;2022-08-23T20:21:22;18.89;95.04
68109;SHT30;54893;49.864;19.084;2022-08-23T20:26:22;18.92;95.13
68109;SHT30;54893;49.864;19.084;2022-08-23T20:31:27;18.85;95.31
68109;SHT30;54893;49.864;19.084;2022-08-23T20:36:27;18.75;95.62
68109;SHT30;54893;49.864;19.084;2022-08-23T20:41:32;18.69;95.91
68109;SHT30;54893;49.864;19.084;2022-08-23T20:46:33;18.77;95.45
68109;SHT30;54893;49.864;19.084;2022-08-23T20:51:34;18.79;95.57
68109;SHT30;54893;49.864;19.084;2022-08-23T20:56:36;18.68;95.75
68109;SHT30;54893;49.864;19.084;2022-08-23T21:01:36;18.66;95.79
68109;SHT30;54893;49.864;19.084;2022-08-23T21:06:40;18.71;95.78
68109;SHT30;54893;49.864;19.084;2022-08-23T21:11:43;18.71;95.64
68109;SHT30;54893;49.864;19.084;2022-08-23T21:16:45;18.77;95.37
68109;SHT30;54893;49.864;19.084;2022-08-23T21:21:46;18.71;95.50
68109;SHT30;54893;49.864;19.084;2022-08-23T21:26:46;18.56;95.85
68109;SHT30;54893;49.864;19.084;2022-08-23T21:31:47;18.56;95.98
68109;SHT30;54893;49.864;19.084;2022-08-23T21:36:47;18.56;95.97
68109;SHT30;54893;49.864;19.084;2022-08-23T21:41:50;18.52;96.11
68109;SHT30;54893;49.864;19.084;2022-08-23T21:46:50;18.51;96.11
68109;SHT30;54893;49.864;19.084;2022-08-23T21:51:51;18.51;96.16
68109;SHT30;54893;49.864;19.084;2022-08-23T21:56:53;18.53;96.11
68109;SHT30;54893;49.864;19.084;2022-08-23T22:01:54;18.48;96.78
68109;SHT30;54893;49.864;19.084;2022-08-23T22:06:55;18.47;96.41
68109;SHT30;54893;49.864;19.084;2022-08-23T22:11:55;18.48;96.11
68109;SHT30;54893;49.864;19.084;2022-08-23T22:16:58;18.47;96.95
68109;SHT30;54893;49.864;19.084;2022-08-23T22:21:58;18.37;96.99
68109;SHT30;54893;49.864;19.084;2022-08-23T22:27:00;18.41;96.26
68109;SHT30;54893;49.864;19.084;2022-08-23T22:32:01;18.39;96.27
68109;SHT30;54893;49.864;19.084;2022-08-23T22:37:01;18.41;96.08
68109;SHT30;54893;49.864;19.084;2022-08-23T22:42:02;18.47;96.00
68109;SHT30;54893;49.864;19.084;2022-08-23T22:47:02;18.38;96.54
68109;SHT30;54893;49.864;19.084;2022-08-23T22:52:03;18.35;96.20
68109;SHT30;54893;49.864;19.084;2022-08-23T22:57:03;18.34;96.20
68109;SHT30;54893;49.864;19.084;2022-08-23T23:02:04;18.31;96.34
68109;SHT30;54893;49.864;19.084;2022-08-23T23:07:04;18.29;96.32
68109;SHT30;54893;49.864;19.084;2022-08-23T23:12:05;18.27;96.60
68109;SHT30;54893;49.864;19.084;2022-08-23T23:17:05;18.28;97.31
68109;SHT30;54893;49.864;19.084;2022-08-23T23:22:06;18.32;97.34
68109;SHT30;54893;49.864;19.084;2022-08-23T23:27:07;18.31;96.39
68109;SHT30;54893;49.864;19.084;2022-08-23T23:32:07;18.29;96.39
68109;SHT30;54893;49.864;19.084;2022-08-23T23:37:08;18.29;96.97
68109;SHT30;54893;49.864;19.084;2022-08-23T23:42:10;18.29;96.70
68109;SHT30;54893;49.864;19.084;2022-08-23T23:47:10;18.32;96.26
68109;SHT30;54893;49.864;19.084;2022-08-23T23:52:11;18.25;96.94
68109;SHT30;54893;49.864;19.084;2022-08-23T23:57:11;18.25;96.83
